Time;durP1;ratioP1;P1;durP2;ratioP2;P2;SDS_P1;SDS_P2;PMS_P1;PMS_P2;Temp;Humidity;BMP_temperature;BMP_pressure;BME280_temperature;BME280_humidity;BME280_pressure;Samples;Min_cycle;Max_cycle;Signal;HPM_P1;HPM_P2
2023/08/02 00:03:04;;;;;;;4.30;1.48;;;;;;;15.44;63.29;99163.97;20783199;28;20494;-79
2023/08/02 00:13:06;;;;;;;4.63;1.58;;;;;;;15.25;64.76;99144.34;20805889;28;20219;-80
2023/08/02 00:23:09;;;;;;;4.93;1.25;;;;;;;15.46;63.95;99142.50;20787668;28;20228;-79
2023/08/02 00:33:15;;;;;;;4.10;1.58;;;;;;;15.20;65.60;99144.72;20803687;28;20215;-78
2023/08/02 00:43:18;;;;;;;3.60;1.57;;;;;;;15.12;65.53;99137.31;20785620;28;20275;-79
2023/08/02 00:53:22;;;;;;;5.27;1.40;;;;;;;15.31;64.11;99117.28;20783885;28;20254;-79
2023/08/02 01:03:25;;;;;;;4.80;1.33;;;;;;;15.21;64.89;99129.31;20800943;28;20212;-79
2023/08/02 01:13:29;;;;;;;2.58;1.15;;;;;;;14.88;65.59;99111.16;20771325;28;20192;-79
2023/08/02 01:23:32;;;;;;;5.10;1.53;;;;;;;15.04;64.92;99082.63;20785266;28;20217;-79
2023/08/02 01:33:46;;;;;;;4.63;0.98;;;;;;;14.76;65.84;99074.59;20783886;28;20193;-79
2023/08/02 01:43:48;;;;;;;3.70;1.07;;;;;;;14.82;66.31;99083.53;20782984;28;20220;-79
2023/08/02 01:53:51;;;;;;;5.43;1.57;;;;;;;15.05;65.50;99070.91;20791734;28;20196;-78
2023/08/02 02:03:54;;;;;;;3.23;1.70;;;;;;;14.94;65.50;99069.13;20795183;28;20245;-78
2023/08/02 02:13:56;;;;;;;2.28;1.73;;;;;;;14.79;66.25;99044.69;20784006;28;20189;-79
2023/08/02 02:23:59;;;;;;;4.20;1.87;;;;;;;15.22;64.59;99040.25;20764243;28;20568;-80
2023/08/02 02:34:02;;;;;;;4.25;1.98;;;;;;;14.86;66.62;99017.25;20779499;28;20246;-79
2023/08/02 02:44:05;;;;;;;5.53;2.50;;;;;;;15.41;64.76;99012.50;20779451;28;20282;-79
2023/08/02 02:54:08;;;;;;;3.85;2.80;;;;;;;15.38;64.85;98998.28;20764813;28;20192;-80
2023/08/02 03:04:10;;;;;;;5.30;2.50;;;;;;;15.30;65.95;98962.59;20773270;28;20220;-79
2023/08/02 03:14:13;;;;;;;3.57;2.20;;;;;;;15.34;65.57;98969.09;20774632;28;20293;-79
2023/08/02 03:24:16;;;;;;;3.50;1.95;;;;;;;15.82;62.82;98944.31;20776204;28;20216;-79
2023/08/02 03:34:18;;;;;;;5.27;1.90;;;;;;;15.45;64.45;98941.66;20758285;28;20600;-79
2023/08/02 03:44:22;;;;;;;6.53;2.13;;;;;;;15.04;66.24;98912.63;20774128;28;20211;-78
2023/08/02 03:54:24;;;;;;;4.30;1.83;;;;;;;15.29;66.01;98888.09;20789094;28;20262;-78
2023/08/02 04:04:27;;;;;;;4.68;1.67;;;;;;;15.62;63.84;98867.19;20776989;28;20505;-78
2023/08/02 04:14:29;;;;;;;4.10;1.65;;;;;;;15.35;65.22;98863.00;20801678;28;20205;-79
2023/08/02 04:24:33;;;;;;;3.70;1.10;;;;;;;15.53;64.34;98863.91;20807487;28;20690;-78
2023/08/02 04:34:36;;;;;;;2.77;1.40;;;;;;;15.61;63.58;98842.06;20780833;28;20228;-79
2023/08/02 04:44:38;;;;;;;2.00;1.10;;;;;;;15.81;62.11;98823.53;20775257;28;20216;-80
2023/08/02 04:54:41;;;;;;;4.30;1.33;;;;;;;15.64;62.86;98782.53;20791219;28;20189;-79
2023/08/02 05:04:44;;;;;;;3.30;1.08;;;;;;;15.48;63.35;98753.72;20793965;28;20221;-79
2023/08/02 05:14:47;;;;;;;3.92;1.55;;;;;;;15.28;64.55;98744.78;20794481;28;20192;-81
2023/08/02 05:24:50;;;;;;;2.22;1.30;;;;;;;15.64;63.60;98713.66;20779984;28;20212;-79
2023/08/02 05:34:53;;;;;;;1.73;1.02;;;;;;;15.54;63.72;98711.63;20795745;28;20196;-79
2023/08/02 05:44:55;;;;;;;3.20;0.98;;;;;;;15.68;63.37;98689.78;20798939;28;20228;-78
2023/08/02 05:54:58;;;;;;;2.45;1.27;;;;;;;15.79;64.11;98650.94;20778609;28;20204;-79
2023/08/02 06:05:00;;;;;;;4.17;1.67;;;;;;;15.88;63.91;98661.03;20795400;28;20263;-79
2023/08/02 06:15:04;;;;;;;6.85;1.60;;;;;;;16.08;63.79;98633.88;20751634;28;20201;-78
2023/08/02 06:25:07;;;;;;;4.82;1.80;;;;;;;15.78;65.87;98609.59;20774292;28;20699;-79
2023/08/02 06:35:09;;;;;;;3.78;1.55;;;;;;;16.20;66.41;98601.44;20782060;28;20189;-79
2023/08/02 06:45:12;;;;;;;2.27;1.70;;;;;;;15.20;71.22;98606.31;20774770;28;20224;-79
2023/08/02 06:55:16;;;;;;;3.23;1.70;;;;;;;16.07;70.90;98569.84;20794252;28;20250;-79
2023/08/02 07:05:19;;;;;;;5.50;2.17;;;;;;;15.21;73.81;98549.22;20773580;28;20228;-81
2023/08/02 07:15:21;;;;;;;5.37;2.03;;;;;;;15.56;73.04;98505.91;20769889;28;20196;-79
2023/08/02 07:25:24;;;;;;;3.92;1.98;;;;;;;15.78;72.36;98490.47;20780953;28;20338;-80
2023/08/02 07:35:27;;;;;;;4.90;1.90;;;;;;;15.75;74.16;98468.56;20794828;28;20197;-79
2023/08/02 07:45:29;;;;;;;3.00;1.90;;;;;;;15.68;74.41;98451.59;20781498;28;20232;-79
2023/08/02 07:55:32;;;;;;;3.95;1.63;;;;;;;15.64;74.62;98432.97;20815716;28;20214;-80
2023/08/02 08:05:34;;;;;;;2.40;1.30;;;;;;;15.97;74.82;98403.31;20789424;28;20560;-80
2023/08/02 08:15:37;;;;;;;1.98;1.10;;;;;;;16.44;73.12;98345.84;20779672;28;20537;-80
2023/08/02 08:25:39;;;;;;;1.20;0.75;;;;;;;15.84;74.42;98334.09;20786458;28;20224;-78
2023/08/02 08:35:42;;;;;;;0.68;0.68;;;;;;;16.24;74.25;98313.53;20792551;28;20260;-80
2023/08/02 08:45:45;;;;;;;0.57;0.50;;;;;;;15.46;74.97;98302.59;20783372;28;20687;-79
2023/08/02 08:55:51;;;;;;;0.40;0.40;;;;;;;15.72;75.76;98275.78;20784746;28;20200;-81
2023/08/02 09:05:58;;;;;;;0.88;0.88;;;;;;;16.24;73.07;98270.97;20773002;28;20293;-80
2023/08/02 09:16:04;;;;;;;0.57;0.57;;;;;;;16.22;73.08;98253.56;20790521;28;20347;-80
2023/08/02 09:26:12;;;;;;;0.50;0.50;;;;;;;16.10;74.05;98229.34;20782274;28;20220;-80
2023/08/02 09:36:33;;;;;;;0.30;0.30;;;;;;;16.81;71.74;98205.97;20815564;28;20205;-79
2023/08/02 09:46:36;;;;;;;0.40;0.40;;;;;;;17.15;70.81;98188.91;20792466;28;20220;-78
2023/08/02 09:56:41;;;;;;;1.17;0.25;;;;;;;17.47;70.92;98151.56;20795053;28;20532;-78
2023/08/02 10:06:53;;;;;;;1.02;0.10;;;;;;;18.02;69.15;98149.50;20772648;28;20545;-79
2023/08/02 10:16:58;;;;;;;1.55;0.30;;;;;;;18.22;67.78;98145.47;20780571;28;20212;-78
2023/08/02 10:27:03;;;;;;;0.47;0.00;;;;;;;17.89;66.74;98138.72;20765699;28;20239;-79
2023/08/02 10:37:09;;;;;;;0.10;0.10;;;;;;;17.90;67.91;98126.09;20773638;28;20205;-81
2023/08/02 10:47:27;;;;;;;1.05;0.10;;;;;;;18.37;68.37;98131.00;20782502;28;20204;-80
2023/08/02 10:57:30;;;;;;;1.25;0.20;;;;;;;18.62;67.96;98129.31;20805547;28;20277;-80
2023/08/02 11:07:34;;;;;;;0.95;0.28;;;;;;;17.92;74.54;98098.03;20791880;28;20866;-80
2023/08/02 11:17:37;;;;;;;1.13;0.10;;;;;;;18.80;72.66;98085.41;20788692;28;20259;-80
2023/08/02 11:28:02;;;;;;;1.55;0.10;;;;;;;19.93;68.25;98062.00;20805544;28;20208;-80
2023/08/02 11:38:11;;;;;;;0.10;0.10;;;;;;;19.79;67.20;98056.63;20765288;28;20212;-80
2023/08/02 11:48:27;;;;;;;0.00;0.00;;;;;;;20.39;63.71;98027.25;20809715;28;20501;-81
2023/08/02 11:58:31;;;;;;;0.20;0.00;;;;;;;19.68;65.53;98031.22;20806664;28;20227;-80
2023/08/02 12:08:34;;;;;;;0.00;0.00;;;;;;;19.85;62.90;98000.63;20801204;28;20224;-81
2023/08/02 12:18:53;;;;;;;0.00;0.00;;;;;;;19.74;64.75;97998.06;20787822;28;20212;-81
2023/08/02 12:28:57;;;;;;;1.02;0.00;;;;;;;19.40;72.50;97972.03;20782490;28;20202;-81
2023/08/02 12:38:59;;;;;;;0.17;0.08;;;;;;;19.46;71.93;97934.00;20764034;28;20217;-80
2023/08/02 12:49:02;;;;;;;0.10;0.00;;;;;;;20.15;68.29;97925.16;20783121;28;20227;-82
2023/08/02 12:59:04;;;;;;;0.52;0.10;;;;;;;19.74;69.51;97900.25;20769803;28;20220;-81
2023/08/02 13:09:07;;;;;;;0.00;0.00;;;;;;;19.73;68.72;97899.44;20791500;28;20274;-81
2023/08/02 13:19:10;;;;;;;0.50;0.15;;;;;;;19.24;75.00;97902.31;20787327;28;20682;-81
2023/08/02 13:29:13;;;;;;;1.38;0.13;;;;;;;19.45;76.34;97920.97;20784964;28;20326;-81
2023/08/02 13:39:16;;;;;;;0.10;0.10;;;;;;;19.11;79.20;97910.00;20761049;28;20262;-81
2023/08/02 13:49:19;;;;;;;0.70;0.30;;;;;;;19.71;75.12;97912.53;20785727;28;20236;-80
2023/08/02 13:59:22;;;;;;;2.28;0.82;;;;;;;19.94;72.53;97927.41;20772874;28;20556;-80
2023/08/02 14:09:25;;;;;;;2.10;0.50;;;;;;;19.17;74.63;97958.75;20789781;28;20220;-82
2023/08/02 14:19:27;;;;;;;1.88;0.50;;;;;;;19.55;72.87;97956.16;20758645;28;20290;-82
2023/08/02 14:29:31;;;;;;;3.88;1.05;;;;;;;19.82;72.31;97947.28;20763443;28;20223;-80
2023/08/02 14:39:36;;;;;;;1.88;0.70;;;;;;;19.95;72.34;97951.03;20776956;28;20316;-81
2023/08/02 14:49:39;;;;;;;3.20;0.60;;;;;;;20.23;69.28;97961.66;20756981;28;20319;-81
2023/08/02 14:59:42;;;;;;;3.45;0.80;;;;;;;20.42;69.85;97950.50;20776314;28;20294;-80
2023/08/02 15:09:46;;;;;;;3.85;1.10;;;;;;;20.65;69.70;97961.69;20746305;28;20236;-82
2023/08/02 15:19:49;;;;;;;1.98;0.77;;;;;;;21.18;63.33;97928.53;20735581;28;20247;-80
2023/08/02 15:29:52;;;;;;;2.20;0.60;;;;;;;20.56;56.79;97905.19;20769146;28;20305;-79
2023/08/02 15:39:54;;;;;;;3.28;0.90;;;;;;;20.68;55.47;97932.16;20742059;28;20274;-80
2023/08/02 15:49:57;;;;;;;2.17;0.70;;;;;;;20.40;57.90;97917.47;20758437;28;20250;-80
2023/08/02 15:59:59;;;;;;;4.47;1.02;;;;;;;20.81;60.50;97909.31;20761471;28;20322;-81
2023/08/02 16:10:13;;;;;;;4.82;0.88;;;;;;;19.47;61.45;97954.75;20781217;28;20801;-81
2023/08/02 16:20:17;;;;;;;2.67;1.20;;;;;;;17.06;76.42;98009.59;20774226;28;21008;-83
2023/08/02 16:30:23;;;;;;;3.45;1.10;;;;;;;17.60;73.90;98009.56;20764474;28;20205;-81
2023/08/02 16:40:26;;;;;;;3.88;1.00;;;;;;;18.06;71.58;97993.72;20781316;28;20281;-79
2023/08/02 16:50:29;;;;;;;3.40;0.75;;;;;;;17.40;74.13;97981.09;20772243;28;20682;-78
2023/08/02 17:00:31;;;;;;;2.38;0.90;;;;;;;18.22;71.17;97974.66;20783813;28;20229;-79
2023/08/02 17:10:34;;;;;;;7.38;1.38;;;;;;;18.47;70.30;97956.25;20704497;28;20275;-79
2023/08/02 17:20:37;;;;;;;6.25;1.33;;;;;;;18.61;70.11;97995.84;20703473;28;20288;-79
2023/08/02 17:30:41;;;;;;;4.82;0.90;;;;;;;18.94;68.68;98008.16;20704076;28;20233;-80
2023/08/02 17:40:45;;;;;;;2.05;0.93;;;;;;;18.15;70.47;98011.03;20675901;28;20271;-80
2023/08/02 17:50:57;;;;;;;1.88;0.88;;;;;;;17.97;70.94;98041.84;20684813;28;20218;-78
2023/08/02 18:01:13;;;;;;;4.03;1.05;;;;;;;18.14;70.82;98058.63;20706259;28;20260;-79
2023/08/02 18:11:17;;;;;;;3.78;1.00;;;;;;;18.47;67.50;98058.78;20680587;28;20224;-79
2023/08/02 18:21:20;;;;;;;3.78;0.98;;;;;;;18.19;67.59;98083.72;20671563;28;20712;-79
2023/08/02 18:31:25;;;;;;;2.05;0.40;;;;;;;17.39;67.67;98143.56;20693653;28;20667;-82
2023/08/02 18:41:28;;;;;;;2.78;0.57;;;;;;;16.23;71.97;98164.38;20685190;28;20257;-81
2023/08/02 18:51:31;;;;;;;3.08;0.50;;;;;;;16.60;71.64;98131.56;20698454;28;20302;-82
2023/08/02 19:01:33;;;;;;;0.52;0.35;;;;;;;17.19;69.83;98129.19;20674541;28;20256;-81
2023/08/02 19:11:39;;;;;;;2.13;0.77;;;;;;;17.10;70.40;98126.06;20672604;28;20643;-80
2023/08/02 19:21:41;;;;;;;2.33;0.30;;;;;;;16.75;70.25;98130.19;20693527;28;20253;-81
2023/08/02 19:31:44;;;;;;;2.20;0.43;;;;;;;16.84;69.95;98136.16;20695107;28;20291;-80
2023/08/02 19:41:49;;;;;;;2.33;0.55;;;;;;;17.10;69.86;98135.41;20706295;28;20253;-80
2023/08/02 19:51:52;;;;;;;2.83;0.70;;;;;;;16.75;70.77;98133.03;20674789;28;20286;-80
2023/08/02 20:01:55;;;;;;;2.20;0.97;;;;;;;16.77;71.02;98133.38;20674932;28;20248;-82
2023/08/02 20:12:01;;;;;;;4.43;0.80;;;;;;;16.70;71.25;98142.00;20632466;28;20229;-80
2023/08/02 20:22:04;;;;;;;2.08;0.60;;;;;;;17.21;69.13;98150.28;20638913;28;20261;-81
2023/08/02 20:32:17;;;;;;;1.90;0.50;;;;;;;16.14;72.47;98155.53;20628039;28;20202;-81
2023/08/02 20:42:20;;;;;;;4.43;0.60;;;;;;;16.12;71.64;98152.28;20603530;28;20300;-80
2023/08/02 20:52:22;;;;;;;3.88;0.63;;;;;;;17.26;67.29;98153.91;20627788;28;20817;-79
2023/08/02 21:02:25;;;;;;;2.28;0.50;;;;;;;16.71;69.28;98138.75;20631182;28;20257;-79
2023/08/02 21:12:28;;;;;;;4.80;0.52;;;;;;;16.28;70.52;98158.22;20768128;28;20228;-79
2023/08/02 21:22:32;;;;;;;3.22;0.70;;;;;;;16.79;69.68;98133.78;20741670;28;20317;-80
2023/08/02 21:32:35;;;;;;;4.53;0.80;;;;;;;16.48;70.25;98142.22;20755043;28;20502;-80
2023/08/02 21:42:43;;;;;;;3.92;1.10;;;;;;;16.42;69.98;98160.94;20741603;28;20252;-80
2023/08/02 21:52:48;;;;;;;5.70;0.80;;;;;;;16.33;71.89;98156.97;20775492;28;20201;-80
2023/08/02 22:02:52;;;;;;;4.63;0.60;;;;;;;15.74;72.33;98159.88;20751475;28;20656;-80
2023/08/02 22:12:55;;;;;;;4.35;0.82;;;;;;;16.09;71.94;98130.47;20752163;28;20541;-80
2023/08/02 22:22:58;;;;;;;3.30;0.82;;;;;;;15.70;72.98;98108.91;20750705;28;20256;-81
2023/08/02 22:33:00;;;;;;;5.90;0.85;;;;;;;16.01;70.32;98120.38;20749096;28;20605;-80
2023/08/02 22:43:03;;;;;;;5.85;1.20;;;;;;;15.72;71.81;98114.16;20751503;28;20255;-79
2023/08/02 22:53:05;;;;;;;3.58;0.93;;;;;;;15.44;72.15;98104.63;20754338;28;20228;-79
2023/08/02 23:03:27;;;;;;;4.90;0.80;;;;;;;16.20;69.30;98102.78;20772935;28;20305;-80
2023/08/02 23:13:30;;;;;;;4.95;0.70;;;;;;;15.98;70.69;98104.22;20749608;28;20204;-78
2023/08/02 23:23:32;;;;;;;2.83;0.40;;;;;;;15.03;74.36;98096.00;20773821;28;20835;-78
2023/08/02 23:33:35;;;;;;;3.67;0.50;;;;;;;15.58;71.69;98089.56;20771716;28;20234;-77
2023/08/02 23:43:38;;;;;;;3.33;0.73;;;;;;;15.47;71.39;98088.81;20766382;28;20248;-80
2023/08/02 23:53:40;;;;;;;2.97;0.57;;;;;;;15.63;71.36;98088.28;20767760;28;20251;-79
